createdAt,value
2019-02-15T00:02:26.149Z,96.42
2019-02-15T00:04:54.709Z,91.75
2019-02-15T00:07:23.320Z,86.90
2019-02-15T00:09:52.017Z,82.88
2019-02-15T00:12:20.872Z,92.57
2019-02-15T00:14:49.943Z,103.53
2019-02-15T00:17:20.549Z,106.58
2019-02-15T00:19:50.607Z,91.12
2019-02-15T00:22:19.367Z,86.32
2019-02-15T00:24:48.328Z,89.00
2019-02-15T00:27:17.163Z,91.37
2019-02-15T00:29:46.185Z,85.20
2019-02-15T00:32:15.407Z,90.20
2019-02-15T00:34:44.163Z,87.35
2019-02-15T00:37:13.098Z,81.82
2019-02-15T00:39:41.787Z,85.55
2019-02-15T00:42:10.650Z,83.90
2019-02-15T00:44:39.303Z,86.60
2019-02-15T00:47:21.614Z,83.65
2019-02-15T00:50:07.974Z,81.00
2019-02-15T00:52:38.350Z,89.07
2019-02-15T00:55:08.510Z,87.15
2019-02-15T00:57:44.572Z,83.50
2019-02-15T01:00:24.134Z,87.65
2019-02-15T01:02:58.135Z,77.50
2019-02-15T01:05:40.219Z,81.80
2019-02-15T01:08:10.378Z,83.80
2019-02-15T01:10:49.540Z,78.30
2019-02-15T01:13:18.274Z,80.42
2019-02-15T01:15:47.282Z,73.78
2019-02-15T01:18:16.215Z,82.40
2019-02-15T01:20:44.716Z,75.22
2019-02-15T01:23:13.681Z,80.85
2019-02-15T01:25:43.843Z,78.95
2019-02-15T01:28:14.131Z,76.12
2019-02-15T01:30:50.410Z,74.40
2019-02-15T01:33:21.281Z,80.40
2019-02-15T01:35:54.790Z,80.42
2019-02-15T01:38:31.387Z,79.50
2019-02-15T01:41:19.953Z,75.97
2019-02-15T01:43:53.031Z,80.85
2019-02-15T01:46:27.077Z,74.40
2019-02-15T01:48:55.921Z,75.03
2019-02-15T01:51:24.819Z,79.85
2019-02-15T01:53:53.612Z,81.57
2019-02-15T01:56:22.232Z,78.17
2019-02-15T01:58:51.094Z,81.85
2019-02-15T02:01:21.259Z,77.05
2019-02-15T02:03:49.849Z,77.37
2019-02-15T02:06:18.697Z,95.87
2019-02-15T02:08:47.486Z,90.62
2019-02-15T02:11:16.094Z,99.47
2019-02-15T02:13:49.662Z,88.85
2019-02-15T02:16:15.334Z,84.87
2019-02-15T02:18:43.949Z,95.22
2019-02-15T02:21:12.971Z,82.97
2019-02-15T02:23:41.602Z,92.67
2019-02-15T02:26:10.556Z,79.15
2019-02-15T02:28:39.343Z,89.65
2019-02-15T02:31:08.145Z,91.75
2019-02-15T02:33:36.974Z,79.47
2019-02-15T02:36:05.528Z,79.25
2019-02-15T02:38:34.581Z,76.57
2019-02-15T02:41:03.037Z,74.07
2019-02-15T02:43:31.689Z,73.95
2019-02-15T02:46:00.578Z,84.32
2019-02-15T02:48:29.129Z,91.32
2019-02-15T02:50:57.979Z,92.15
2019-02-15T02:53:26.570Z,102.45
2019-02-15T02:55:55.081Z,99.67
2019-02-15T02:58:24.009Z,121.57
2019-02-15T03:00:52.812Z,136.77
2019-02-15T03:03:21.428Z,112.85
2019-02-15T03:05:50.200Z,119.37
2019-02-15T03:08:19.072Z,155.43
2019-02-15T03:10:47.953Z,142.40
2019-02-15T03:13:16.563Z,188.47
2019-02-15T03:15:45.162Z,153.85
2019-02-15T03:18:13.783Z,474.90
2019-02-15T03:20:42.729Z,163.55
2019-02-15T03:23:11.507Z,124.72
2019-02-15T03:25:40.331Z,138.22
2019-02-15T03:28:08.896Z,145.77
2019-02-15T03:30:37.812Z,146.00
2019-02-15T03:33:06.485Z,154.87
2019-02-15T03:35:34.970Z,152.93
2019-02-15T03:38:05.205Z,183.52
2019-02-15T03:40:35.542Z,128.80
2019-02-15T03:43:04.504Z,122.65
2019-02-15T03:45:33.118Z,103.22
2019-02-15T03:48:01.871Z,181.22
2019-02-15T03:50:30.862Z,142.00
2019-02-15T03:52:59.711Z,121.10
2019-02-15T03:55:28.760Z,146.85
2019-02-15T03:57:57.335Z,148.30
2019-02-15T04:00:25.938Z,204.72
2019-02-15T04:02:54.813Z,178.97
2019-02-15T04:05:23.748Z,166.40
2019-02-15T04:07:52.633Z,149.97
2019-02-15T04:10:21.313Z,184.05
2019-02-15T04:12:49.934Z,188.68
2019-02-15T04:15:18.739Z,158.42
2019-02-15T04:17:47.560Z,139.45
2019-02-15T04:20:16.362Z,153.45
2019-02-15T04:22:45.377Z,167.00
2019-02-15T04:25:14.171Z,198.85
2019-02-15T04:27:43.199Z,185.95
2019-02-15T04:30:12.224Z,179.72
2019-02-15T04:32:41.049Z,164.22
2019-02-15T04:35:10.003Z,147.75
2019-02-15T04:37:39.848Z,188.20
2019-02-15T04:40:09.128Z,169.37
2019-02-15T04:42:37.901Z,153.25
2019-02-15T04:45:06.827Z,147.47
2019-02-15T04:47:35.460Z,146.80
2019-02-15T04:50:04.183Z,129.78
2019-02-15T04:52:32.834Z,141.45
2019-02-15T04:55:01.686Z,128.50
2019-02-15T04:57:30.165Z,136.88
2019-02-15T04:59:59.008Z,126.33
2019-02-15T05:02:27.789Z,142.70
2019-02-15T05:04:56.310Z,131.22
2019-02-15T05:07:26.826Z,171.32
2019-02-15T05:09:55.403Z,166.18
2019-02-15T05:12:24.326Z,151.82
2019-02-15T05:14:53.581Z,119.13
2019-02-15T05:17:22.417Z,196.40
2019-02-15T05:19:51.023Z,181.52
2019-02-15T05:22:19.569Z,182.40
2019-02-15T05:24:48.627Z,204.82
2019-02-15T05:27:17.341Z,226.30
2019-02-15T05:29:46.070Z,243.40
2019-02-15T05:32:15.816Z,329.30
2019-02-15T05:34:44.723Z,353.73
2019-02-15T05:37:13.549Z,353.50
2019-02-15T05:39:42.112Z,297.65
2019-02-15T05:42:10.977Z,339.57
2019-02-15T05:44:39.811Z,281.87
2019-02-15T05:47:08.401Z,291.63
2019-02-15T05:49:37.347Z,318.52
2019-02-15T05:52:06.215Z,295.82
2019-02-15T05:54:34.912Z,358.30
2019-02-15T05:57:03.534Z,388.85
2019-02-15T05:59:32.119Z,372.88
2019-02-15T06:02:00.750Z,391.23
2019-02-15T06:04:29.627Z,398.60
2019-02-15T06:06:58.653Z,438.57
2019-02-15T06:09:27.642Z,438.70
2019-02-15T06:11:56.161Z,442.87
2019-02-15T06:14:24.803Z,368.82
2019-02-15T06:16:53.436Z,315.18
2019-02-15T06:19:22.151Z,311.98
2019-02-15T06:21:51.561Z,292.60
2019-02-15T06:24:20.349Z,292.62
2019-02-15T06:26:48.849Z,294.15
2019-02-15T06:29:17.559Z,295.60
2019-02-15T06:31:46.364Z,295.63
2019-02-15T06:34:15.050Z,308.10
2019-02-15T06:36:43.921Z,294.07
2019-02-15T06:39:12.867Z,307.87
2019-02-15T06:41:41.401Z,305.77
2019-02-15T06:44:10.118Z,309.10
2019-02-15T06:46:38.740Z,294.87
2019-02-15T06:49:07.391Z,311.62
2019-02-15T06:51:36.140Z,311.77
2019-02-15T06:54:04.867Z,336.52
2019-02-15T06:56:33.811Z,313.80
2019-02-15T06:59:06.970Z,298.10
2019-02-15T07:01:53.792Z,271.55
2019-02-15T07:04:23.921Z,270.27
2019-02-15T07:06:52.445Z,285.05
2019-02-15T07:09:21.371Z,262.02
2019-02-15T07:11:50.134Z,256.40
2019-02-15T07:14:20.846Z,239.15
2019-02-15T07:16:49.178Z,252.00
2019-02-15T07:19:18.129Z,255.85
2019-02-15T07:21:47.023Z,274.00
2019-02-15T07:24:15.832Z,292.18
2019-02-15T07:26:44.698Z,285.90
2019-02-15T07:29:13.212Z,268.12
2019-02-15T07:31:42.038Z,291.23
2019-02-15T07:34:11.029Z,269.30
2019-02-15T07:36:39.952Z,223.50
2019-02-15T07:39:08.953Z,220.57
2019-02-15T07:41:37.563Z,229.15
2019-02-15T07:44:06.122Z,212.10
2019-02-15T07:46:34.859Z,219.07
2019-02-15T07:49:03.789Z,219.55
2019-02-15T07:51:32.344Z,196.12
2019-02-15T07:54:01.338Z,190.30
2019-02-15T07:56:30.040Z,218.40
2019-02-15T07:58:59.994Z,197.75
2019-02-15T08:01:28.494Z,219.47
2019-02-15T08:03:57.188Z,201.30
2019-02-15T08:06:26.129Z,200.40
2019-02-15T08:08:55.642Z,212.88
2019-02-15T08:11:24.243Z,203.92
2019-02-15T08:13:52.847Z,212.32
2019-02-15T08:16:21.691Z,189.90
2019-02-15T08:18:50.520Z,202.30
2019-02-15T08:21:19.508Z,193.20
2019-02-15T08:23:48.071Z,192.45
2019-02-15T08:26:16.684Z,181.12
2019-02-15T08:28:45.515Z,202.90
2019-02-15T08:31:14.342Z,182.85
2019-02-15T08:33:43.179Z,177.38
2019-02-15T08:36:11.686Z,160.25
2019-02-15T08:38:40.209Z,179.35
2019-02-15T08:41:09.086Z,204.38
2019-02-15T08:43:37.944Z,188.47
2019-02-15T08:46:06.888Z,193.15
2019-02-15T08:48:36.204Z,164.25
2019-02-15T08:51:04.938Z,160.95
2019-02-15T08:53:33.808Z,164.85
2019-02-15T08:56:02.648Z,173.72
2019-02-15T08:58:31.258Z,173.62
2019-02-15T09:01:00.938Z,176.93
2019-02-15T09:03:29.724Z,163.92
2019-02-15T09:05:58.490Z,166.37
2019-02-15T09:08:27.243Z,169.62
2019-02-15T09:10:56.053Z,163.18
2019-02-15T09:13:24.850Z,169.57
2019-02-15T09:15:53.598Z,156.67
2019-02-15T09:18:22.229Z,151.53
2019-02-15T09:20:50.843Z,155.80
2019-02-15T09:23:19.603Z,156.15
2019-02-15T09:25:48.276Z,152.38
2019-02-15T09:28:24.997Z,144.13
2019-02-15T09:30:54.192Z,140.82
2019-02-15T09:33:22.952Z,141.57
2019-02-15T09:35:51.724Z,142.72
2019-02-15T09:38:20.778Z,137.18
2019-02-15T09:40:49.582Z,143.07
2019-02-15T09:43:18.260Z,142.13
2019-02-15T09:45:47.060Z,124.58
2019-02-15T09:48:15.890Z,137.40
2019-02-15T09:50:45.039Z,157.20
2019-02-15T09:53:13.692Z,166.53
2019-02-15T09:55:42.488Z,137.40
2019-02-15T09:58:11.401Z,139.28
2019-02-15T10:00:40.186Z,121.82
2019-02-15T10:03:08.913Z,120.55
2019-02-15T10:05:37.879Z,114.35
2019-02-15T10:08:06.596Z,113.80
2019-02-15T10:10:36.348Z,111.00
2019-02-15T10:13:05.178Z,124.30
2019-02-15T10:15:34.051Z,107.50
2019-02-15T10:18:02.839Z,101.90
2019-02-15T10:20:31.655Z,116.67
2019-02-15T10:23:00.434Z,111.15
2019-02-15T10:25:29.370Z,106.45
2019-02-15T10:27:58.188Z,109.80
2019-02-15T10:30:26.801Z,113.40
2019-02-15T10:32:55.597Z,107.15
2019-02-15T10:35:24.208Z,113.03
2019-02-15T10:37:55.999Z,110.80
2019-02-15T10:40:24.609Z,119.85
2019-02-15T10:42:53.384Z,114.60
2019-02-15T10:45:22.296Z,140.52
2019-02-15T10:47:51.340Z,161.05
2019-02-15T10:50:20.154Z,160.12
2019-02-15T10:52:48.849Z,154.35
2019-02-15T10:55:17.376Z,154.40
2019-02-15T10:57:46.329Z,152.53
2019-02-15T11:00:17.160Z,142.35
2019-02-15T11:02:46.071Z,146.85
2019-02-15T11:05:15.047Z,156.22
2019-02-15T11:07:43.899Z,164.95
2019-02-15T11:10:12.763Z,189.85
2019-02-15T11:12:41.234Z,184.13
2019-02-15T11:15:14.198Z,160.48
2019-02-15T11:17:42.795Z,186.75
2019-02-15T11:20:15.845Z,149.12
2019-02-15T11:22:45.897Z,157.60
2019-02-15T11:25:14.680Z,145.40
2019-02-15T11:27:43.507Z,133.18
2019-02-15T11:30:15.654Z,133.05
2019-02-15T11:32:44.178Z,126.62
2019-02-15T11:35:13.502Z,124.80
2019-02-15T11:37:42.323Z,119.87
2019-02-15T11:40:12.497Z,134.72
2019-02-15T11:42:41.408Z,142.75
2019-02-15T11:45:11.110Z,165.90
2019-02-15T11:47:40.200Z,134.03
2019-02-15T11:50:10.240Z,130.55
2019-02-15T11:52:38.841Z,103.27
2019-02-15T11:55:09.351Z,96.25
2019-02-15T11:57:38.349Z,106.80
2019-02-15T12:00:14.156Z,114.22
2019-02-15T12:02:39.939Z,108.07
2019-02-15T12:05:08.880Z,112.22
2019-02-15T12:07:37.723Z,112.12
2019-02-15T12:10:08.362Z,114.80
2019-02-15T12:12:38.950Z,110.63
2019-02-15T12:15:08.688Z,110.37
2019-02-15T12:17:37.599Z,115.72
2019-02-15T12:20:07.858Z,114.12
2019-02-15T12:22:36.865Z,108.85
2019-02-15T12:25:07.747Z,117.85
2019-02-15T12:27:36.489Z,115.28
2019-02-15T12:30:06.702Z,109.85
2019-02-15T12:32:35.632Z,114.72
2019-02-15T12:35:04.651Z,114.50
2019-02-15T12:37:33.514Z,116.88
2019-02-15T12:40:02.466Z,112.62
2019-02-15T12:42:31.244Z,114.95
2019-02-15T12:45:00.273Z,125.33
2019-02-15T12:47:29.085Z,137.22
2019-02-15T12:49:57.568Z,131.15
2019-02-15T12:52:26.495Z,127.38
2019-02-15T12:54:55.327Z,108.85
2019-02-15T12:57:23.907Z,110.72
2019-02-15T12:59:52.671Z,122.25
2019-02-15T13:02:21.320Z,100.50
2019-02-15T13:04:49.843Z,83.87
2019-02-15T13:07:18.625Z,83.70
2019-02-15T13:09:47.050Z,86.97
2019-02-15T13:12:15.612Z,100.72
2019-02-15T13:14:44.301Z,85.62
2019-02-15T13:17:13.117Z,92.55
2019-02-15T13:19:41.908Z,99.80
2019-02-15T13:22:10.486Z,132.30
2019-02-15T13:24:39.307Z,106.78
2019-02-15T13:27:08.348Z,90.95
2019-02-15T13:29:37.303Z,83.87
2019-02-15T13:32:05.946Z,87.45
2019-02-15T13:34:34.610Z,84.37
2019-02-15T13:37:03.229Z,83.65
2019-02-15T13:39:32.039Z,85.55
2019-02-15T13:42:01.053Z,86.35
2019-02-15T13:44:29.561Z,84.77
2019-02-15T13:46:58.336Z,84.97
2019-02-15T13:49:27.353Z,88.82
2019-02-15T13:51:55.858Z,124.58
2019-02-15T13:54:24.793Z,113.25
2019-02-15T13:56:53.773Z,104.23
2019-02-15T13:59:22.566Z,101.75
2019-02-15T14:01:51.295Z,98.27
2019-02-15T14:04:20.054Z,96.87
2019-02-15T14:06:50.291Z,90.53
2019-02-15T14:09:19.018Z,92.22
2019-02-15T14:11:47.934Z,97.00
2019-02-15T14:14:17.632Z,98.80
2019-02-15T14:16:46.282Z,87.45
2019-02-15T14:19:16.299Z,89.42
2019-02-15T14:21:44.928Z,87.65
2019-02-15T14:24:13.611Z,92.25
2019-02-15T14:26:42.479Z,95.77
2019-02-15T14:29:11.310Z,105.00
2019-02-15T14:31:39.901Z,94.25
2019-02-15T14:34:08.566Z,97.15
2019-02-15T14:36:37.288Z,89.87
2019-02-15T14:39:07.461Z,94.37
2019-02-15T14:41:36.030Z,101.82
2019-02-15T14:44:05.249Z,98.55
2019-02-15T14:46:34.210Z,94.90
2019-02-15T14:49:02.676Z,99.13
2019-02-15T14:51:32.210Z,113.95
2019-02-15T14:54:00.860Z,94.45
2019-02-15T14:56:30.490Z,121.65
2019-02-15T14:58:59.535Z,108.45
2019-02-15T15:01:28.160Z,118.97
2019-02-15T15:03:57.046Z,86.92
2019-02-15T15:06:25.969Z,96.95
2019-02-15T15:08:54.598Z,149.50
2019-02-15T15:11:23.281Z,95.12
2019-02-15T15:13:52.181Z,93.22
2019-02-15T15:16:21.709Z,84.87
2019-02-15T15:18:51.337Z,82.75
2019-02-15T15:21:20.247Z,82.82
2019-02-15T15:23:48.839Z,75.30
2019-02-15T15:26:17.595Z,83.35
2019-02-15T15:28:46.145Z,83.22
2019-02-15T15:31:15.042Z,83.55
2019-02-15T15:33:43.701Z,80.35
2019-02-15T15:36:12.489Z,84.40
2019-02-15T15:38:41.439Z,80.15
2019-02-15T15:41:10.070Z,98.85
2019-02-15T15:43:38.909Z,112.30
2019-02-15T15:46:07.532Z,105.65
2019-02-15T15:48:36.247Z,104.15
2019-02-15T15:51:04.964Z,100.45
2019-02-15T15:53:33.771Z,92.05
2019-02-15T15:56:02.707Z,95.17
2019-02-15T15:58:31.557Z,101.12
2019-02-15T16:01:00.500Z,95.35
2019-02-15T16:03:29.109Z,97.57
2019-02-15T16:06:00.009Z,94.50
2019-02-15T16:08:28.318Z,86.10
2019-02-15T16:10:57.040Z,86.80
2019-02-15T16:13:25.767Z,92.65
2019-02-15T16:15:55.613Z,281.82
2019-02-15T16:18:33.059Z,94.15
2019-02-15T16:20:55.999Z,97.73
2019-02-15T16:23:24.824Z,98.90
2019-02-15T16:25:53.379Z,98.40
2019-02-15T16:28:22.252Z,84.30
2019-02-15T16:30:50.973Z,106.17
2019-02-15T16:33:19.931Z,92.17
2019-02-15T16:35:48.793Z,90.45
2019-02-15T16:38:17.374Z,92.35
2019-02-15T16:40:46.324Z,101.65
2019-02-15T16:43:15.364Z,103.55
2019-02-15T16:45:44.171Z,99.95
2019-02-15T16:48:12.853Z,103.80
2019-02-15T16:50:41.519Z,98.97
2019-02-15T16:53:10.338Z,89.47
2019-02-15T16:55:38.889Z,101.42
2019-02-15T16:58:07.822Z,105.12
2019-02-15T17:00:36.546Z,99.75
2019-02-15T17:03:05.639Z,101.80
2019-02-15T17:05:34.651Z,104.15
2019-02-15T17:08:03.430Z,110.78
2019-02-15T17:10:33.510Z,115.88
2019-02-15T17:13:02.192Z,113.05
2019-02-15T17:15:31.031Z,103.55
2019-02-15T17:17:59.588Z,107.52
2019-02-15T17:20:28.418Z,145.38
2019-02-15T17:22:57.102Z,122.15
2019-02-15T17:25:25.902Z,113.92
2019-02-15T17:27:54.842Z,117.55
2019-02-15T17:30:23.331Z,121.92
2019-02-15T17:32:51.857Z,116.28
2019-02-15T17:35:20.491Z,114.82
2019-02-15T17:37:49.299Z,129.03
2019-02-15T17:40:19.505Z,130.27
2019-02-15T17:42:48.211Z,122.50
2019-02-15T17:45:17.016Z,127.32
2019-02-15T17:47:46.830Z,129.68
2019-02-15T17:50:15.426Z,139.82
2019-02-15T17:52:44.631Z,148.53
2019-02-15T17:55:13.283Z,158.32
2019-02-15T17:57:41.864Z,187.62
2019-02-15T18:00:14.358Z,171.18
2019-02-15T18:02:43.144Z,155.37
2019-02-15T18:05:17.845Z,150.42
2019-02-15T18:07:47.453Z,168.60
2019-02-15T18:10:16.533Z,150.15
2019-02-15T18:12:45.402Z,164.90
2019-02-15T18:15:13.990Z,133.35
2019-02-15T18:17:42.905Z,148.25
2019-02-15T18:20:11.423Z,148.20
2019-02-15T18:22:40.078Z,148.05
2019-02-15T18:25:08.941Z,144.28
2019-02-15T18:30:17.818Z,158.75
2019-02-15T18:32:46.341Z,169.15
2019-02-15T18:35:15.107Z,159.78
2019-02-15T18:37:44.030Z,155.00
2019-02-15T18:40:12.612Z,158.95
2019-02-15T18:42:41.503Z,156.82
2019-02-15T18:45:11.719Z,151.95
2019-02-15T18:47:40.703Z,149.82
2019-02-15T18:50:09.897Z,159.37
2019-02-15T18:52:39.494Z,138.75
2019-02-15T18:55:08.989Z,151.02
2019-02-15T18:57:38.813Z,142.90
2019-02-15T19:00:14.904Z,150.32
2019-02-15T19:02:44.708Z,148.10
2019-02-15T19:05:13.549Z,146.65
2019-02-15T19:07:42.198Z,139.57
2019-02-15T19:10:12.558Z,127.90
2019-02-15T19:12:41.572Z,138.03
2019-02-15T19:15:11.812Z,143.45
2019-02-15T19:17:40.403Z,110.72
2019-02-15T19:20:10.408Z,91.87
2019-02-15T19:22:39.947Z,96.10
2019-02-15T19:25:09.704Z,89.90
2019-02-15T19:27:38.643Z,95.75
2019-02-15T19:30:11.916Z,99.92
2019-02-15T19:32:40.742Z,97.85
2019-02-15T19:35:09.493Z,96.42
2019-02-15T19:37:38.279Z,95.45
2019-02-15T19:40:08.424Z,106.85
2019-02-15T19:42:37.366Z,121.55
2019-02-15T19:45:07.612Z,123.38
2019-02-15T19:47:36.426Z,106.47
2019-02-15T19:50:06.573Z,96.80
2019-02-15T19:52:35.513Z,100.10
2019-02-15T19:55:04.366Z,96.40
2019-02-15T19:57:33.208Z,93.72
2019-02-15T20:00:01.962Z,105.80
2019-02-15T20:02:30.679Z,102.47
2019-02-15T20:04:59.290Z,96.80
2019-02-15T20:07:27.905Z,95.75
2019-02-15T20:09:56.631Z,101.53
2019-02-15T20:12:25.483Z,96.02
2019-02-15T20:14:54.186Z,110.08
2019-02-15T20:17:23.150Z,97.92
2019-02-15T20:19:53.183Z,106.15
2019-02-15T20:22:21.810Z,102.30
2019-02-15T20:24:50.637Z,105.52
2019-02-15T20:27:19.209Z,104.60
2019-02-15T20:29:49.723Z,98.65
2019-02-15T20:32:18.012Z,82.90
2019-02-15T20:34:46.622Z,71.65
2019-02-15T20:37:15.189Z,82.85
2019-02-15T20:39:45.035Z,99.10
2019-02-15T20:42:13.639Z,91.97
2019-02-15T20:44:42.267Z,94.45
2019-02-15T20:47:10.845Z,91.97
2019-02-15T20:49:39.464Z,95.17
2019-02-15T20:52:08.301Z,100.55
2019-02-15T20:54:36.903Z,81.28
2019-02-15T20:57:05.427Z,85.07
2019-02-15T20:59:37.067Z,87.92
2019-02-15T21:02:05.791Z,81.85
2019-02-15T21:04:34.333Z,80.75
2019-02-15T21:07:02.921Z,78.42
2019-02-15T21:09:31.391Z,74.65
2019-02-15T21:12:00.117Z,80.03
2019-02-15T21:14:28.608Z,74.00
2019-02-15T21:16:57.099Z,73.22
2019-02-15T21:19:25.685Z,76.70
2019-02-15T21:21:54.214Z,85.07
2019-02-15T21:24:22.786Z,82.45
2019-02-15T21:26:51.368Z,71.30
2019-02-15T21:29:19.938Z,74.05
2019-02-15T21:31:48.483Z,89.22
2019-02-15T21:34:17.114Z,86.30
2019-02-15T21:36:45.923Z,68.22
2019-02-15T21:39:14.513Z,77.78
2019-02-15T21:41:43.156Z,76.95
2019-02-15T21:44:11.702Z,80.50
2019-02-15T21:46:40.272Z,72.42
2019-02-15T21:49:09.272Z,85.32
2019-02-15T21:51:38.144Z,133.67
2019-02-15T21:54:06.873Z,128.25
2019-02-15T21:56:35.998Z,113.28
2019-02-15T21:59:04.864Z,104.30
2019-02-15T22:01:36.563Z,121.62
2019-02-15T22:04:05.109Z,140.07
2019-02-15T22:06:33.830Z,102.12
2019-02-15T22:09:02.668Z,89.75
2019-02-15T22:11:32.826Z,97.45
2019-02-15T22:14:01.573Z,93.07
2019-02-15T22:16:30.338Z,94.90
2019-02-15T22:18:58.904Z,89.03
2019-02-15T22:21:27.593Z,87.75
2019-02-15T22:23:56.243Z,95.90
2019-02-15T22:26:25.842Z,93.12
2019-02-15T22:28:54.365Z,89.87
2019-02-15T22:31:23.160Z,100.67
2019-02-15T22:33:51.845Z,123.38
2019-02-15T22:36:20.440Z,126.35
2019-02-15T22:38:49.164Z,126.72
2019-02-15T22:41:17.711Z,112.25
2019-02-15T22:43:46.658Z,104.15
2019-02-15T22:46:15.414Z,92.42
2019-02-15T22:48:44.224Z,99.50
2019-02-15T22:51:12.929Z,96.75
2019-02-15T22:53:41.639Z,95.70
2019-02-15T22:56:10.369Z,97.25
2019-02-15T22:58:38.956Z,96.37
2019-02-15T23:01:09.271Z,92.67
2019-02-15T23:03:40.250Z,112.68
2019-02-15T23:06:09.755Z,109.92
2019-02-15T23:08:38.400Z,96.28
2019-02-15T23:11:07.185Z,102.30
2019-02-15T23:13:36.130Z,96.17
2019-02-15T23:16:04.747Z,100.87
2019-02-15T23:18:33.530Z,91.87
2019-02-15T23:21:02.107Z,99.80
2019-02-15T23:23:30.638Z,96.92
2019-02-15T23:25:59.563Z,99.77
2019-02-15T23:28:29.342Z,91.65
2019-02-15T23:30:57.992Z,94.77
2019-02-15T23:33:26.647Z,92.57
2019-02-15T23:35:55.452Z,101.53
2019-02-15T23:38:24.311Z,122.65
2019-02-15T23:40:53.159Z,105.55
2019-02-15T23:43:22.108Z,117.20
2019-02-15T23:45:50.822Z,104.65
2019-02-15T23:48:19.432Z,97.42
2019-02-15T23:50:54.221Z,101.15
2019-02-15T23:53:18.852Z,96.47
2019-02-15T23:55:47.751Z,99.07
2019-02-15T23:58:16.401Z,103.25
